createdAt,value
2024-05-09T00:00:01.312Z,6.44
2024-05-09T00:01:01.458Z,6.43
2024-05-09T00:02:03.182Z,6.41
2024-05-09T00:03:01.629Z,6.4
2024-05-09T00:04:01.828Z,6.38
2024-05-09T00:05:03.663Z,6.37
2024-05-09T00:06:03.756Z,6.36
2024-05-09T00:07:03.600Z,6.38
2024-05-09T00:08:02.198Z,6.39
2024-05-09T00:09:03.834Z,6.39
2024-05-09T00:10:04.147Z,6.4
2024-05-09T00:11:03.147Z,6.39
2024-05-09T00:12:01.763Z,6.38
2024-05-09T00:13:01.597Z,6.37
2024-05-09T00:14:01.737Z,6.37
2024-05-09T00:15:01.791Z,6.37
2024-05-09T00:16:02.192Z,6.34
2024-05-09T00:17:02.100Z,6.34
2024-05-09T00:18:04.284Z,6.34
2024-05-09T00:19:02.326Z,6.33
2024-05-09T00:20:01.464Z,6.31
2024-05-09T00:21:03.256Z,6.31
2024-05-09T00:22:01.539Z,6.31
2024-05-09T00:23:01.663Z,6.3
2024-05-09T00:24:01.702Z,6.3
2024-05-09T00:25:03.416Z,6.26
2024-05-09T00:26:01.987Z,6.26
2024-05-09T00:27:02.024Z,6.23
2024-05-09T00:28:02.074Z,6.23
2024-05-09T00:29:02.349Z,6.22
2024-05-09T00:30:01.298Z,6.23
2024-05-09T00:31:03.026Z,6.23
2024-05-09T00:32:03.352Z,6.21
2024-05-09T00:33:04.028Z,6.2
2024-05-09T00:34:01.993Z,6.16
2024-05-09T00:35:01.893Z,6.16
2024-05-09T00:36:01.960Z,6.16
2024-05-09T00:37:03.651Z,6.16
2024-05-09T00:38:02.373Z,6.14
2024-05-09T00:39:03.865Z,6.13
2024-05-09T00:40:01.345Z,6.13
2024-05-09T00:41:03.110Z,6.12
2024-05-09T00:42:01.564Z,6.08
2024-05-09T00:43:01.649Z,6.05
2024-05-09T00:44:01.810Z,6.02
2024-05-09T00:45:01.847Z,6.02
2024-05-09T00:46:03.536Z,6
2024-05-09T00:47:02.092Z,5.99
2024-05-09T00:48:02.435Z,5.99
2024-05-09T00:49:03.992Z,5.99
2024-05-09T00:50:01.496Z,6
2024-05-09T00:51:01.461Z,5.99
2024-05-09T00:52:03.190Z,5.99
2024-05-09T00:53:01.649Z,5.98
2024-05-09T00:54:03.369Z,5.96
2024-05-09T00:55:03.437Z,5.96
2024-05-09T00:56:01.965Z,5.95
2024-05-09T00:57:03.642Z,5.92
2024-05-09T00:58:02.118Z,5.91
2024-05-09T00:59:03.919Z,5.89
2024-05-09T01:00:01.306Z,5.87
2024-05-09T01:01:01.449Z,5.87
2024-05-09T01:02:01.678Z,5.84
2024-05-09T01:03:01.934Z,5.84
2024-05-09T01:04:01.808Z,5.83
2024-05-09T01:05:02.026Z,5.82
2024-05-09T01:06:03.639Z,5.8
2024-05-09T01:07:02.012Z,5.79
2024-05-09T01:08:03.796Z,5.77
2024-05-09T01:09:02.207Z,5.79
2024-05-09T01:10:01.378Z,5.8
2024-05-09T01:11:01.672Z,5.79
2024-05-09T01:12:01.687Z,5.78
2024-05-09T01:13:01.624Z,5.79
2024-05-09T01:14:03.373Z,5.79
2024-05-09T01:15:01.849Z,5.78
2024-05-09T01:16:01.912Z,5.78
2024-05-09T01:17:02.048Z,5.78
2024-05-09T01:18:02.443Z,5.76
2024-05-09T01:19:03.949Z,5.74
2024-05-09T01:20:01.379Z,5.74
2024-05-09T01:21:01.463Z,5.74
2024-05-09T01:22:03.172Z,5.74
2024-05-09T01:23:03.286Z,5.7
2024-05-09T01:24:03.349Z,5.68
2024-05-09T01:25:01.814Z,5.66
2024-05-09T01:26:03.594Z,5.66
2024-05-09T01:27:02.023Z,5.67
2024-05-09T01:28:02.160Z,5.66
2024-05-09T01:29:02.253Z,5.64
2024-05-09T01:30:01.302Z,5.63
2024-05-09T01:31:01.399Z,5.6
2024-05-09T01:32:03.254Z,5.56
2024-05-09T01:33:02.021Z,5.55
2024-05-09T01:34:01.791Z,5.56
2024-05-09T01:35:01.871Z,5.57
2024-05-09T01:36:03.573Z,5.54
2024-05-09T01:37:02.031Z,5.51
2024-05-09T01:38:02.394Z,5.5
2024-05-09T01:39:03.870Z,5.48
2024-05-09T01:40:03.661Z,5.46
2024-05-09T01:41:01.498Z,5.46
2024-05-09T01:42:01.569Z,5.46
2024-05-09T01:43:01.645Z,5.46
2024-05-09T01:44:03.407Z,5.43
2024-05-09T01:45:03.465Z,5.41
2024-05-09T01:46:03.576Z,5.4
2024-05-09T01:47:03.746Z,5.4
2024-05-09T01:48:02.944Z,5.39
2024-05-09T01:49:02.370Z,5.39
2024-05-09T01:50:01.566Z,5.41
2024-05-09T01:51:03.143Z,5.42
2024-05-09T01:52:01.552Z,5.42
2024-05-09T01:53:03.337Z,5.43
2024-05-09T01:54:03.389Z,5.43
2024-05-09T01:55:05.676Z,5.45
2024-05-09T01:56:03.618Z,5.45
2024-05-09T01:57:02.063Z,5.42
2024-05-09T01:58:02.163Z,5.41
2024-05-09T01:59:02.337Z,5.41
2024-05-09T02:00:01.352Z,5.43
2024-05-09T02:01:01.490Z,5.43
2024-05-09T02:02:01.796Z,5.45
2024-05-09T02:03:03.472Z,5.45
2024-05-09T02:04:03.632Z,5.46
2024-05-09T02:05:02.033Z,5.46
2024-05-09T02:06:02.107Z,5.46
2024-05-09T02:07:03.710Z,5.43
2024-05-09T02:08:02.238Z,5.43
2024-05-09T02:09:02.262Z,5.45
2024-05-09T02:10:01.379Z,5.42
2024-05-09T02:11:01.580Z,5.41
2024-05-09T02:12:01.658Z,5.41
2024-05-09T02:13:01.654Z,5.42
2024-05-09T02:14:01.804Z,5.42
2024-05-09T02:15:01.874Z,5.43
2024-05-09T02:16:03.579Z,5.43
2024-05-09T02:17:02.088Z,5.43
2024-05-09T02:18:04.165Z,5.45
2024-05-09T02:19:02.420Z,5.45
2024-05-09T02:20:01.472Z,5.48
2024-05-09T02:21:03.350Z,5.52
2024-05-09T02:22:03.207Z,5.56
2024-05-09T02:23:03.391Z,5.6
2024-05-09T02:24:03.355Z,5.62
2024-05-09T02:25:03.489Z,5.64
2024-05-09T02:26:03.642Z,5.66
2024-05-09T02:27:02.065Z,5.66
2024-05-09T02:28:02.206Z,5.64
2024-05-09T02:29:02.341Z,5.62
2024-05-09T02:30:01.350Z,5.62
2024-05-09T02:31:01.460Z,5.59
2024-05-09T02:32:01.631Z,5.56
2024-05-09T02:33:03.443Z,5.55
2024-05-09T02:34:02.074Z,5.55
2024-05-09T02:35:03.618Z,5.56
2024-05-09T02:36:01.968Z,5.59
2024-05-09T02:37:03.687Z,5.62
2024-05-09T02:38:03.901Z,5.63
2024-05-09T02:39:02.247Z,5.65
2024-05-09T02:40:03.480Z,5.66
2024-05-09T02:41:01.510Z,5.66
2024-05-09T02:42:01.547Z,5.66
2024-05-09T02:43:03.314Z,5.65
2024-05-09T02:44:01.784Z,5.64
2024-05-09T02:45:03.490Z,5.63
2024-05-09T02:46:03.580Z,5.62
2024-05-09T02:47:02.078Z,5.62
2024-05-09T02:48:04.142Z,5.62
2024-05-09T02:49:02.376Z,5.62
2024-05-09T02:50:03.633Z,5.62
2024-05-09T02:51:03.256Z,5.6
2024-05-09T02:52:03.193Z,5.6
2024-05-09T02:53:01.669Z,5.59
2024-05-09T02:54:01.746Z,5.57
2024-05-09T02:55:01.858Z,5.56
2024-05-09T02:56:03.597Z,5.56
2024-05-09T02:57:03.685Z,5.55
2024-05-09T02:58:03.791Z,5.54
2024-05-09T02:59:02.274Z,5.53
2024-05-09T03:00:01.311Z,5.52
2024-05-09T03:01:01.469Z,5.5
2024-05-09T03:02:03.277Z,5.47
2024-05-09T03:03:01.862Z,5.46
2024-05-09T03:04:01.880Z,5.43
2024-05-09T03:05:01.873Z,5.4
2024-05-09T03:06:03.543Z,5.38
2024-05-09T03:07:02.063Z,5.37
2024-05-09T03:08:02.239Z,5.38
2024-05-09T03:09:03.881Z,5.39
2024-05-09T03:10:01.297Z,5.38
2024-05-09T03:11:03.084Z,5.39
2024-05-09T03:12:01.626Z,5.38
2024-05-09T03:13:03.316Z,5.36
2024-05-09T03:14:01.773Z,5.33
2024-05-09T03:15:03.486Z,5.3
2024-05-09T03:16:01.907Z,5.28
2024-05-09T03:17:03.827Z,5.25
2024-05-09T03:18:02.492Z,5.23
2024-05-09T03:19:02.443Z,5.2
2024-05-09T03:20:01.384Z,5.19
2024-05-09T03:21:01.526Z,5.2
2024-05-09T03:22:01.560Z,5.22
2024-05-09T03:23:01.748Z,5.23
2024-05-09T03:24:01.764Z,5.23
2024-05-09T03:25:01.866Z,5.21
2024-05-09T03:26:01.988Z,5.19
2024-05-09T03:27:02.030Z,5.19
2024-05-09T03:28:02.160Z,5.18
2024-05-09T03:29:02.979Z,5.19
2024-05-09T03:30:01.374Z,5.19
2024-05-09T03:31:01.451Z,5.19
2024-05-09T03:32:03.349Z,5.2
2024-05-09T03:33:03.480Z,5.2
2024-05-09T03:34:01.968Z,5.19
2024-05-09T03:35:03.564Z,5.18
2024-05-09T03:36:04.591Z,5.17
2024-05-09T03:37:02.120Z,5.18
2024-05-09T03:38:03.993Z,5.17
2024-05-09T03:39:02.920Z,5.16
2024-05-09T03:40:03.088Z,5.18
2024-05-09T03:41:01.540Z,5.18
2024-05-09T03:42:01.630Z,5.16
2024-05-09T03:43:03.344Z,5.16
2024-05-09T03:44:01.881Z,5.15
2024-05-09T03:45:01.919Z,5.12
2024-05-09T03:46:03.658Z,5.1
2024-05-09T03:47:02.233Z,5.09
2024-05-09T03:49:03.077Z,5.06
2024-05-09T03:50:01.505Z,5.03
2024-05-09T03:51:01.579Z,5.01
2024-05-09T03:52:01.726Z,5.01
2024-05-09T03:53:03.537Z,5.03
2024-05-09T03:54:03.479Z,5.04
2024-05-09T03:55:03.615Z,5.06
2024-05-09T03:56:02.110Z,5.07
2024-05-09T03:57:02.200Z,5.08
2024-05-09T03:58:01.307Z,5.07
2024-05-09T03:59:01.400Z,5.07
2024-05-09T04:00:01.490Z,5.07
2024-05-09T04:01:01.740Z,5.06
2024-05-09T04:02:01.780Z,5.05
2024-05-09T04:03:02.201Z,5.05
2024-05-09T04:04:01.917Z,5.05
2024-05-09T04:05:03.754Z,5.05
2024-05-09T04:06:03.828Z,5.05
2024-05-09T04:07:02.229Z,5.06
2024-05-09T04:08:01.575Z,5.08
2024-05-09T04:09:03.064Z,5.09
2024-05-09T04:10:01.509Z,5.1
2024-05-09T04:11:01.778Z,5.11
2024-05-09T04:12:01.922Z,5.11
2024-05-09T04:13:02.021Z,5.12
2024-05-09T04:14:02.031Z,5.11
2024-05-09T04:15:03.637Z,5.12
2024-05-09T04:16:03.748Z,5.16
2024-05-09T04:17:03.878Z,5.17
2024-05-09T04:18:02.332Z,5.19
2024-05-09T04:19:03.120Z,5.2
2024-05-09T04:20:03.255Z,5.22
2024-05-09T04:21:01.783Z,5.24
2024-05-09T04:22:03.355Z,5.26
2024-05-09T04:23:03.561Z,5.28
2024-05-09T04:24:01.923Z,5.3
2024-05-09T04:25:02.021Z,5.34
2024-05-09T04:26:02.196Z,5.36
2024-05-09T04:27:03.872Z,5.38
2024-05-09T04:28:02.973Z,5.39
2024-05-09T04:29:03.135Z,5.4
2024-05-09T04:30:01.506Z,5.4
2024-05-09T04:31:01.591Z,5.4
2024-05-09T04:32:01.743Z,5.39
2024-05-09T04:33:02.015Z,5.39
2024-05-09T04:34:04.012Z,5.38
2024-05-09T04:35:03.818Z,5.4
2024-05-09T04:36:02.114Z,5.42
2024-05-09T04:37:02.244Z,5.45
2024-05-09T04:38:02.991Z,5.49
2024-05-09T04:39:01.415Z,5.53
2024-05-09T04:40:01.553Z,5.56
2024-05-09T04:41:03.348Z,5.59
2024-05-09T04:42:03.350Z,5.6
2024-05-09T04:43:01.842Z,5.64
2024-05-09T04:44:02.069Z,5.66
2024-05-09T04:45:02.018Z,5.68
2024-05-09T04:46:02.155Z,5.72
2024-05-09T04:47:03.920Z,5.76
2024-05-09T04:48:03.493Z,5.8
2024-05-09T04:49:03.178Z,5.84
2024-05-09T04:50:03.599Z,5.87
2024-05-09T04:51:03.508Z,5.91
2024-05-09T04:52:01.726Z,5.93
2024-05-09T04:53:01.885Z,5.95
2024-05-09T04:54:01.924Z,5.97
2024-05-09T04:55:02.068Z,6.01
2024-05-09T04:56:03.798Z,6.06
2024-05-09T04:57:03.895Z,6.1
2024-05-09T04:58:01.356Z,6.13
2024-05-09T04:59:01.532Z,6.16
2024-05-09T05:00:01.663Z,6.2
2024-05-09T05:01:01.707Z,6.21
2024-05-09T05:02:03.569Z,6.24
2024-05-09T05:03:02.071Z,6.27
2024-05-09T05:04:02.160Z,6.3
2024-05-09T05:05:02.273Z,6.34
2024-05-09T05:06:02.395Z,6.37
2024-05-09T05:07:03.166Z,6.41
2024-05-09T05:08:01.514Z,6.43
2024-05-09T05:09:01.499Z,6.43
2024-05-09T05:10:04.501Z,6.44
2024-05-09T05:11:01.830Z,6.45
2024-05-09T05:12:01.944Z,6.46
2024-05-09T05:13:01.904Z,6.5
2024-05-09T05:14:03.721Z,6.52
2024-05-09T05:15:02.089Z,6.56
2024-05-09T05:16:02.214Z,6.6
2024-05-09T05:17:03.034Z,6.66
2024-05-09T05:18:01.553Z,6.7
2024-05-09T05:19:03.311Z,6.75
2024-05-09T05:20:03.597Z,6.8
2024-05-09T05:21:03.396Z,6.83
2024-05-09T05:22:01.856Z,6.86
2024-05-09T05:23:02.033Z,6.88
2024-05-09T05:24:03.648Z,6.94
2024-05-09T05:25:02.142Z,7.03
2024-05-09T05:26:02.303Z,7.13
2024-05-09T05:27:01.314Z,7.25
2024-05-09T05:28:01.427Z,7.35
2024-05-09T05:29:01.584Z,7.41
2024-05-09T05:30:01.685Z,7.42
2024-05-09T05:31:01.735Z,7.45
2024-05-09T05:32:01.904Z,7.48
2024-05-09T05:33:03.621Z,7.5
2024-05-09T05:34:03.709Z,7.57
2024-05-09T05:35:03.825Z,7.63
2024-05-09T05:36:02.246Z,7.71
2024-05-09T05:37:03.134Z,7.74
2024-05-09T05:38:01.622Z,7.78
2024-05-09T05:39:03.208Z,7.83
2024-05-09T05:40:01.663Z,7.85
2024-05-09T05:41:03.431Z,7.88
2024-05-09T05:42:01.861Z,7.89
2024-05-09T05:43:03.584Z,7.93
2024-05-09T05:44:03.781Z,7.98
2024-05-09T05:45:02.189Z,8.03
2024-05-09T05:46:01.251Z,8.08
2024-05-09T05:47:01.493Z,8.09
2024-05-09T05:48:01.774Z,8.17
2024-05-09T05:49:01.680Z,8.24
2024-05-09T05:50:01.718Z,8.35
2024-05-09T05:51:04.700Z,8.46
2024-05-09T05:52:03.602Z,8.56
2024-05-09T05:53:03.777Z,8.6
2024-05-09T05:54:03.732Z,8.63
2024-05-09T05:55:03.872Z,8.6
2024-05-09T05:56:01.532Z,8.58
2024-05-09T05:57:03.082Z,8.55
2024-05-09T05:58:01.558Z,8.55
2024-05-09T05:59:03.286Z,8.55
2024-05-09T06:00:01.790Z,8.55
2024-05-09T06:01:01.846Z,8.53
2024-05-09T06:02:01.958Z,8.55
2024-05-09T06:03:03.787Z,8.63
2024-05-09T06:04:03.846Z,8.64
2024-05-09T06:05:02.338Z,8.63
2024-05-09T06:06:01.368Z,8.63
2024-05-09T06:07:01.452Z,8.61
2024-05-09T06:08:03.283Z,8.61
2024-05-09T06:09:03.284Z,8.63
2024-05-09T06:10:05.238Z,8.67
2024-05-09T06:11:02.000Z,8.74
2024-05-09T06:12:03.735Z,8.86
2024-05-09T06:13:03.646Z,8.94
2024-05-09T06:14:02.232Z,9.04
2024-05-09T06:15:02.291Z,9.12
2024-05-09T06:16:03.052Z,9.21
2024-05-09T06:17:03.073Z,9.29
2024-05-09T06:18:03.346Z,9.34
2024-05-09T06:19:03.355Z,9.39
2024-05-09T06:20:01.899Z,9.48
2024-05-09T06:21:02.006Z,9.56
2024-05-09T06:22:03.627Z,9.65
2024-05-09T06:23:02.346Z,9.7
2024-05-09T06:24:06.160Z,9.75
2024-05-09T06:25:01.252Z,9.8
2024-05-09T06:26:03.023Z,9.86
2024-05-09T06:27:01.474Z,9.93
2024-05-09T06:28:01.699Z,9.99
2024-05-09T06:29:01.730Z,10.09
2024-05-09T06:30:03.869Z,10.19
2024-05-09T06:31:01.895Z,10.23
2024-05-09T06:32:03.757Z,10.26
2024-05-09T06:33:02.243Z,10.31
2024-05-09T06:34:04.041Z,10.39
2024-05-09T06:35:01.309Z,10.48
2024-05-09T06:36:03.059Z,10.51
2024-05-09T06:37:01.504Z,10.5
2024-05-09T06:38:02.013Z,10.49
2024-05-09T06:39:01.665Z,10.56
2024-05-09T06:40:01.764Z,10.57
2024-05-09T06:41:01.983Z,10.57
2024-05-09T06:42:02.019Z,10.56
2024-05-09T06:43:02.096Z,10.57
2024-05-09T06:44:03.876Z,10.59
2024-05-09T06:45:01.299Z,10.62
2024-05-09T06:46:01.406Z,10.68
2024-05-09T06:47:01.579Z,10.72
2024-05-09T06:48:01.738Z,10.79
2024-05-09T06:49:01.941Z,10.84
2024-05-09T06:50:01.794Z,10.89
2024-05-09T06:51:03.581Z,10.95
2024-05-09T06:52:01.970Z,10.97
2024-05-09T06:53:02.373Z,11.04
2024-05-09T06:54:02.168Z,11.11
2024-05-09T06:55:02.934Z,11.2
2024-05-09T06:56:01.460Z,11.24
2024-05-09T06:57:01.500Z,11.32
2024-05-09T06:58:01.635Z,11.44
2024-05-09T06:59:03.354Z,11.54
2024-05-09T07:00:01.808Z,11.54
2024-05-09T07:01:01.980Z,11.57
2024-05-09T07:02:03.694Z,11.59
2024-05-09T07:03:05.470Z,11.62
2024-05-09T07:04:04.235Z,11.63
2024-05-09T07:05:03.030Z,11.67
2024-05-09T07:06:01.518Z,11.7
2024-05-09T07:07:01.503Z,11.82
2024-05-09T07:08:03.397Z,11.97
2024-05-09T07:09:01.736Z,12.12
2024-05-09T07:10:01.845Z,12.19
2024-05-09T07:11:03.630Z,12.21
2024-05-09T07:12:02.152Z,12.19
2024-05-09T07:13:02.121Z,12.19
2024-05-09T07:14:02.326Z,12.18
2024-05-09T07:15:01.352Z,12.22
2024-05-09T07:16:03.117Z,12.23
2024-05-09T07:17:01.619Z,12.25
2024-05-09T07:18:03.582Z,12.25
2024-05-09T07:19:01.868Z,12.3
2024-05-09T07:20:01.899Z,12.38
2024-05-09T07:21:03.669Z,12.44
2024-05-09T07:22:02.070Z,12.44
2024-05-09T07:23:02.267Z,12.47
2024-05-09T07:24:03.898Z,12.56
2024-05-09T07:25:01.370Z,12.6
2024-05-09T07:26:01.494Z,12.69
2024-05-09T07:27:01.556Z,12.73
2024-05-09T07:28:01.621Z,12.79
2024-05-09T07:29:01.808Z,12.78
2024-05-09T07:30:02.211Z,12.75
2024-05-09T07:31:03.612Z,12.76
2024-05-09T07:32:02.243Z,12.78
2024-05-09T07:33:03.035Z,12.84
2024-05-09T07:34:01.409Z,12.91
2024-05-09T07:35:03.079Z,12.96
2024-05-09T07:36:03.163Z,13.03
2024-05-09T07:37:01.576Z,13.05
2024-05-09T07:38:01.720Z,13.04
2024-05-09T07:39:01.795Z,13.03
2024-05-09T07:40:01.898Z,13.05
2024-05-09T07:41:02.116Z,13.08
2024-05-09T07:42:02.121Z,13.16
2024-05-09T07:43:02.216Z,13.15
2024-05-09T07:44:01.401Z,13.12
2024-05-09T07:45:20.963Z,13.12
2024-05-09T07:46:51.896Z,13.1
2024-05-09T07:50:53.277Z,13.2
2024-05-09T07:51:51.318Z,13.2
2024-05-09T07:53:26.754Z,13.23
2024-05-09T07:53:36.116Z,13.24
2024-05-09T07:54:03.647Z,13.27
2024-05-09T07:55:01.698Z,13.33
2024-05-09T07:56:03.447Z,13.36
2024-05-09T07:57:01.864Z,13.37
2024-05-09T07:58:01.928Z,13.38
2024-05-09T07:59:03.491Z,13.41
2024-05-09T08:00:04.503Z,13.47
2024-05-09T08:01:02.270Z,13.5
2024-05-09T08:02:02.489Z,13.52
2024-05-09T08:03:02.303Z,13.55
2024-05-09T08:04:03.175Z,13.62
2024-05-09T08:05:01.745Z,13.65
2024-05-09T08:06:03.188Z,13.7
2024-05-09T08:07:03.335Z,13.74
2024-05-09T08:08:03.387Z,13.85
2024-05-09T08:09:08.042Z,13.95
2024-05-09T08:10:05.233Z,14.01
2024-05-09T08:11:03.771Z,14.07
2024-05-09T08:12:02.150Z,14.18
2024-05-09T08:14:03.024Z,14.26
2024-05-09T08:15:01.487Z,14.25
2024-05-09T08:16:03.385Z,14.25
2024-05-09T08:17:01.719Z,14.36
2024-05-09T08:18:03.585Z,14.47
2024-05-09T08:19:01.988Z,14.52
2024-05-09T08:20:05.076Z,14.55
2024-05-09T08:21:03.703Z,14.58
2024-05-09T08:22:03.811Z,14.63
2024-05-09T08:23:01.264Z,14.72
2024-05-09T08:24:03.002Z,14.85
2024-05-09T08:25:01.584Z,14.95
2024-05-09T08:26:01.604Z,15.01
2024-05-09T08:27:01.677Z,15.1
2024-05-09T08:28:01.858Z,15.21
2024-05-09T08:29:01.890Z,15.21
2024-05-09T08:30:03.994Z,15.29
2024-05-09T08:31:06.066Z,15.34
2024-05-09T08:32:02.210Z,15.44
2024-05-09T08:33:01.364Z,15.53
2024-05-09T08:34:03.199Z,15.59
2024-05-09T08:35:03.145Z,15.56
2024-05-09T08:36:03.292Z,15.53
2024-05-09T08:37:12.845Z,15.49
2024-05-09T08:38:03.682Z,15.52
2024-05-09T08:39:01.950Z,15.55
2024-05-09T08:40:02.061Z,15.6
2024-05-09T08:41:02.117Z,15.68
2024-05-09T08:42:03.868Z,15.71
2024-05-09T08:43:01.428Z,15.72
2024-05-09T08:44:01.477Z,15.7
2024-05-09T08:45:03.214Z,15.72
2024-05-09T08:46:03.335Z,15.73
2024-05-09T08:47:03.439Z,15.74
2024-05-09T08:48:03.539Z,15.75
2024-05-09T08:49:02.240Z,15.74
2024-05-09T08:50:02.106Z,15.82
2024-05-09T08:51:02.179Z,15.92
2024-05-09T08:52:04.041Z,15.92
2024-05-09T08:53:03.031Z,15.93
2024-05-09T08:54:01.446Z,15.93
2024-05-09T08:55:03.315Z,15.95
2024-05-09T08:56:01.659Z,16.01
2024-05-09T08:57:03.369Z,16.06
2024-05-09T08:58:03.683Z,16.15
2024-05-09T08:59:01.926Z,16.26
2024-05-09T09:00:06.252Z,16.39
2024-05-09T09:01:02.203Z,16.49
2024-05-09T09:02:02.444Z,16.54
2024-05-09T09:03:03.030Z,16.59
2024-05-09T09:04:01.726Z,16.66
2024-05-09T09:05:03.295Z,16.75
2024-05-09T09:06:01.694Z,16.81
2024-05-09T09:07:03.714Z,16.91
2024-05-09T09:08:03.475Z,16.91
2024-05-09T09:09:03.571Z,17.01
2024-05-09T09:10:02.063Z,17.07
2024-05-09T09:11:03.785Z,17.16
2024-05-09T09:12:03.951Z,17.21
2024-05-09T09:13:03.161Z,17.28
2024-05-09T09:14:01.473Z,17.29
2024-05-09T09:15:01.563Z,17.31
2024-05-09T09:16:01.791Z,17.32
2024-05-09T09:17:03.384Z,17.35
2024-05-09T09:18:03.717Z,17.37
2024-05-09T09:19:03.788Z,17.43
2024-05-09T09:20:02.243Z,17.51
2024-05-09T09:21:03.799Z,17.61
2024-05-09T09:23:02.999Z,17.6
2024-05-09T09:24:01.455Z,17.62
2024-05-09T09:25:01.660Z,17.62
2024-05-09T09:26:01.817Z,17.7
2024-05-09T09:27:03.396Z,17.77
2024-05-09T09:28:01.899Z,17.79
2024-05-09T09:29:01.999Z,17.74
2024-05-09T09:30:02.044Z,17.73
2024-05-09T09:31:04.103Z,17.77
2024-05-09T09:32:02.910Z,17.84
2024-05-09T09:33:01.492Z,17.89
2024-05-09T09:34:01.771Z,17.88
2024-05-09T09:35:01.726Z,17.85
2024-05-09T09:36:03.387Z,17.87
2024-05-09T09:37:03.609Z,17.9
2024-05-09T09:38:02.038Z,17.89
2024-05-09T09:39:01.993Z,17.91
2024-05-09T09:40:02.187Z,17.93
2024-05-09T09:41:04.012Z,17.97
2024-05-09T09:42:02.904Z,18.05
2024-05-09T09:43:03.149Z,18.1
2024-05-09T09:44:03.145Z,18.05
2024-05-09T09:45:05.502Z,18.04
2024-05-09T09:46:03.446Z,18.06
2024-05-09T09:47:01.840Z,18.04
2024-05-09T09:48:02.022Z,18.08
2024-05-09T09:49:03.704Z,18.12
2024-05-09T09:50:02.292Z,18.11
2024-05-09T09:51:02.250Z,18.06
2024-05-09T09:52:01.384Z,18.04
2024-05-09T09:53:01.472Z,18.02
2024-05-09T09:54:03.132Z,18
2024-05-09T09:55:03.411Z,17.98
2024-05-09T09:56:01.727Z,18.02
2024-05-09T09:57:01.807Z,18.06
2024-05-09T09:58:01.989Z,18.11
2024-05-09T09:59:02.045Z,18.18
2024-05-09T10:00:03.114Z,18.26
2024-05-09T10:01:02.430Z,18.34
2024-05-09T10:02:01.603Z,18.37
2024-05-09T10:03:03.242Z,18.42
2024-05-09T10:04:01.689Z,18.47
2024-05-09T10:05:03.491Z,18.5
2024-05-09T10:06:01.783Z,18.53
2024-05-09T10:07:01.905Z,18.55
2024-05-09T10:08:01.944Z,18.55
2024-05-09T10:09:03.708Z,18.46
2024-05-09T10:10:02.593Z,18.43
2024-05-09T10:11:04.200Z,18.51
2024-05-09T10:12:03.072Z,18.57
2024-05-09T10:13:03.204Z,18.58
2024-05-09T10:14:01.530Z,18.44
2024-05-09T10:15:03.291Z,18.44
2024-05-09T10:16:01.814Z,18.48
2024-05-09T10:17:03.485Z,18.52
2024-05-09T10:18:02.123Z,18.54
2024-05-09T10:19:02.231Z,18.59
2024-05-09T10:20:02.533Z,18.67
2024-05-09T10:21:02.272Z,18.69
2024-05-09T10:22:03.052Z,18.66
2024-05-09T10:23:03.103Z,18.55
2024-05-09T10:24:01.549Z,18.44
2024-05-09T10:25:04.698Z,18.41
2024-05-09T10:26:03.768Z,18.47
2024-05-09T10:27:03.477Z,18.52
2024-05-09T10:28:01.999Z,18.48
2024-05-09T10:29:03.736Z,18.49
2024-05-09T10:30:05.120Z,18.53
2024-05-09T10:31:02.353Z,18.5
2024-05-09T10:32:01.360Z,18.51
2024-05-09T10:33:03.269Z,18.51
2024-05-09T10:34:01.751Z,18.47
2024-05-09T10:35:01.929Z,18.35
2024-05-09T10:36:01.748Z,18.28
2024-05-09T10:37:04.196Z,18.27
2024-05-09T10:38:03.634Z,18.25
2024-05-09T10:39:02.096Z,18.21
2024-05-09T10:40:02.566Z,18.15
2024-05-09T10:41:01.310Z,18.13
2024-05-09T10:42:01.383Z,18.21
2024-05-09T10:43:05.758Z,18.29
2024-05-09T10:44:03.253Z,18.3
2024-05-09T10:45:03.323Z,18.34
2024-05-09T10:46:01.784Z,18.38
2024-05-09T10:47:03.566Z,18.35
2024-05-09T10:48:02.248Z,18.35
2024-05-09T10:49:07.163Z,18.35
2024-05-09T10:50:07.799Z,18.35
2024-05-09T10:51:02.935Z,18.39
2024-05-09T10:52:03.066Z,18.39
2024-05-09T10:53:03.093Z,18.3
2024-05-09T10:54:03.243Z,18.3
2024-05-09T10:55:05.627Z,18.32
2024-05-09T10:56:03.423Z,18.26
2024-05-09T10:57:03.516Z,18.27
2024-05-09T10:58:02.011Z,18.3
2024-05-09T10:59:03.729Z,18.29
2024-05-09T11:00:02.183Z,18.35
2024-05-09T11:01:04.337Z,18.4
2024-05-09T11:02:01.484Z,18.42
2024-05-09T11:03:03.215Z,18.46
2024-05-09T11:04:03.536Z,18.44
2024-05-09T11:05:01.824Z,18.43
2024-05-09T11:06:03.411Z,18.42
2024-05-09T11:07:05.127Z,18.4
2024-05-09T11:08:03.600Z,18.37
2024-05-09T11:09:03.748Z,18.3
2024-05-09T11:10:02.263Z,18.25
2024-05-09T11:11:01.288Z,18.24
2024-05-09T11:12:01.440Z,18.27
2024-05-09T11:13:01.550Z,18.32
2024-05-09T11:14:01.609Z,18.34
2024-05-09T11:15:03.378Z,18.29
2024-05-09T11:16:03.539Z,18.26
2024-05-09T11:17:02.026Z,18.28
2024-05-09T11:18:02.123Z,18.33
2024-05-09T11:19:02.369Z,18.35
2024-05-09T11:20:03.248Z,18.32
2024-05-09T11:21:02.993Z,18.27
2024-05-09T11:22:03.098Z,18.27
2024-05-09T11:23:01.542Z,18.36
2024-05-09T11:24:01.640Z,18.44
2024-05-09T11:25:03.425Z,18.52
2024-05-09T11:26:03.522Z,18.58
2024-05-09T11:27:03.610Z,18.66
2024-05-09T11:28:02.168Z,18.74
2024-05-09T11:29:03.774Z,18.76
2024-05-09T11:30:04.490Z,18.78
2024-05-09T11:31:03.089Z,18.82
2024-05-09T11:32:03.082Z,18.82
2024-05-09T11:33:01.685Z,18.74
2024-05-09T11:34:01.653Z,18.68
2024-05-09T11:35:03.399Z,18.7
2024-05-09T11:36:01.810Z,18.79
2024-05-09T11:37:03.669Z,18.85
2024-05-09T11:38:02.090Z,18.89
2024-05-09T11:39:02.146Z,18.88
2024-05-09T11:40:03.337Z,18.8
2024-05-09T11:41:01.372Z,18.8
2024-05-09T11:42:01.453Z,18.84
2024-05-09T11:43:01.784Z,18.86
2024-05-09T11:44:03.286Z,18.89
2024-05-09T11:45:01.724Z,18.96
2024-05-09T11:46:04.181Z,18.98
2024-05-09T11:47:01.956Z,18.96
2024-05-09T11:48:02.361Z,18.91
2024-05-09T11:49:02.381Z,18.85
2024-05-09T11:50:04.360Z,18.76
2024-05-09T11:51:01.411Z,18.72
2024-05-09T11:52:01.524Z,18.72
2024-05-09T11:53:01.573Z,18.69
2024-05-09T11:54:03.340Z,18.67
2024-05-09T11:55:03.479Z,18.79
2024-05-09T11:56:01.869Z,18.91
2024-05-09T11:57:01.967Z,19.02
2024-05-09T11:58:03.734Z,19.06
2024-05-09T11:59:02.241Z,19.1
2024-05-09T12:00:04.165Z,19.13
2024-05-09T12:01:01.500Z,19
2024-05-09T12:02:01.565Z,18.92
2024-05-09T12:03:01.628Z,18.89
2024-05-09T12:04:01.990Z,18.96
2024-05-09T12:05:01.911Z,19.01
2024-05-09T12:06:02.116Z,19.09
2024-05-09T12:07:03.850Z,19.15
2024-05-09T12:08:03.708Z,19.24
2024-05-09T12:09:03.794Z,19.24
2024-05-09T12:10:04.684Z,19.2
2024-05-09T12:11:01.697Z,19.24
2024-05-09T12:12:03.179Z,19.28
2024-05-09T12:13:05.377Z,19.3
2024-05-09T12:14:03.298Z,19.33
2024-05-09T12:15:03.426Z,19.33
2024-05-09T12:16:02.008Z,19.39
2024-05-09T12:17:01.989Z,19.44
2024-05-09T12:18:03.907Z,19.35
2024-05-09T12:19:02.369Z,19.27
2024-05-09T12:20:04.311Z,19.26
2024-05-09T12:21:01.395Z,19.35
2024-05-09T12:22:03.142Z,19.4
2024-05-09T12:23:01.589Z,19.51
2024-05-09T12:24:03.325Z,19.62
2024-05-09T12:25:01.811Z,19.66
2024-05-09T12:26:03.518Z,19.65
2024-05-09T12:27:02.057Z,19.63
2024-05-09T12:28:03.734Z,19.68
2024-05-09T12:29:03.965Z,19.73
2024-05-09T12:30:04.612Z,19.75
2024-05-09T12:31:01.398Z,19.84
2024-05-09T12:32:03.106Z,19.91
2024-05-09T12:33:03.304Z,19.91
2024-05-09T12:34:01.694Z,19.97
2024-05-09T12:35:01.765Z,20.11
2024-05-09T12:36:03.514Z,20.16
2024-05-09T12:37:02.004Z,20.24
2024-05-09T12:38:03.839Z,20.28
2024-05-09T12:39:02.192Z,20.11
2024-05-09T12:40:01.322Z,19.94
2024-05-09T12:41:01.454Z,19.86
2024-05-09T12:42:03.182Z,19.58
2024-05-09T12:43:03.283Z,19.35
2024-05-09T12:44:01.717Z,19.17
2024-05-09T12:45:03.400Z,19.07
2024-05-09T12:46:02.088Z,19
2024-05-09T12:47:03.684Z,19.1
2024-05-09T12:48:03.942Z,19.21
2024-05-09T12:49:02.440Z,19.32
2024-05-09T12:50:04.958Z,19.43
2024-05-09T12:51:03.095Z,19.6
2024-05-09T12:52:03.369Z,19.59
2024-05-09T12:53:02.360Z,19.48
2024-05-09T12:54:01.790Z,19.51
2024-05-09T12:55:03.835Z,19.52
2024-05-09T12:56:04.880Z,19.53
2024-05-09T12:57:02.064Z,19.61
2024-05-09T12:58:02.266Z,19.73
2024-05-09T12:59:02.915Z,19.91
2024-05-09T13:00:01.391Z,19.92
2024-05-09T13:01:03.236Z,19.97
2024-05-09T13:02:01.858Z,20.04
2024-05-09T13:03:02.011Z,20.14
2024-05-09T13:04:02.133Z,20.3
2024-05-09T13:05:02.183Z,20.55
2024-05-09T13:06:01.981Z,20.68
2024-05-09T13:07:06.384Z,20.76
2024-05-09T13:08:02.161Z,20.87
2024-05-09T13:09:02.926Z,20.96
2024-05-09T13:10:01.489Z,21.07
2024-05-09T13:11:03.130Z,21.01
2024-05-09T13:12:03.272Z,20.91
2024-05-09T13:13:03.478Z,20.85
2024-05-09T13:14:01.832Z,20.75